Main page
METAR-TAF:

METAR-TAF

Airports :

Ajaccio Napoleon Bonaparte Airport

Ajaccio, France

latitude: 41-55N, longitude: 008-48E, elevation: 6 m

Current weather observation

The report was made 17 minutes ago, at 10:00 UTC
Wind 6 kt from the Southwest, varying between South and West/Southwest
Temperature 24°C
Humidity 61%
Pressure 1016 hPa
Visibility 10 km or more
no clouds below 1500 m and no cumulonimbus

METAR: LFKJ 191000Z AUTO 23006KT 190V250 CAVOK 24/16 Q1016 NOSIG

Time: 12:17 (10:17 UTC)

Forecast

The report was made 2 hours and 17 minutes ago, at 08:00 UTC
Forecast valid from 19 at 09 UTC to 20 at 09 UTC
Wind 10 kt from the Southwest
Visibility 10 km or more
no clouds below 1500 m and no cumulonimbus
Becoming
from 19 at 18 UTC to 19 at 20 UTC
Wind 4 kt from the Northeast

TAF: LFKJ 190800Z 1909/2009 23010KT CAVOK BECMG 1918/1920 05004KT

Weather observations and forecasts of more than 4000 airports (METAR and TAF reports).

The available stations are represented by yellow and red dots on the map.

Hover mouse over dot to see the name of the station.

Then click to see weather observations and forecasts.

To change the map : click on the green buttons with a black cross to zoom in, on the green button with a dash to zoom out, or on the green arrows for adjacent maps.


METAR-TAF: